createdAt,value
2019-01-30T00:00:27.785Z,16.40
2019-01-30T00:03:22.378Z,16.30
2019-01-30T00:06:17.244Z,16.30
2019-01-30T00:09:16.541Z,16.30
2019-01-30T00:12:11.167Z,16.30
2019-01-30T00:15:05.615Z,16.30
2019-01-30T00:18:00.497Z,16.30
2019-01-30T00:20:54.833Z,16.20
2019-01-30T00:23:49.577Z,16.20
2019-01-30T00:26:44.320Z,16.20
2019-01-30T00:29:38.925Z,16.20
2019-01-30T00:32:33.419Z,16.20
2019-01-30T00:35:27.863Z,16.20
2019-01-30T00:38:22.348Z,16.10
2019-01-30T00:41:16.855Z,16.10
2019-01-30T00:44:11.039Z,16.10
2019-01-30T00:47:15.456Z,16.10
2019-01-30T00:50:01.695Z,16.10
2019-01-30T00:52:56.277Z,16.10
2019-01-30T00:55:50.670Z,16.00
2019-01-30T00:58:45.068Z,16.00
2019-01-30T01:01:39.669Z,16.00
2019-01-30T01:04:34.516Z,16.00
2019-01-30T01:07:29.046Z,16.00
2019-01-30T01:10:23.779Z,16.00
2019-01-30T01:13:18.384Z,15.90
2019-01-30T01:16:13.035Z,15.90
2019-01-30T01:19:07.626Z,15.90
2019-01-30T01:22:03.093Z,15.90
2019-01-30T01:28:07.124Z,15.90
2019-01-30T01:31:04.459Z,15.80
2019-01-30T01:33:59.851Z,15.80
2019-01-30T01:36:55.101Z,15.80
2019-01-30T01:39:51.064Z,15.80
2019-01-30T01:42:44.886Z,15.80
2019-01-30T01:45:39.331Z,15.80
2019-01-30T01:48:34.043Z,15.80
2019-01-30T01:51:28.630Z,15.80
2019-01-30T01:54:23.301Z,15.80
2019-01-30T01:57:18.763Z,15.80
2019-01-30T02:00:16.700Z,15.80
2019-01-30T02:03:11.692Z,15.80
2019-01-30T02:06:06.133Z,15.80
2019-01-30T02:09:00.622Z,15.90
2019-01-30T02:11:55.930Z,15.90
2019-01-30T02:14:50.387Z,15.90
2019-01-30T02:17:44.860Z,15.90
2019-01-30T02:20:39.550Z,15.90
2019-01-30T02:23:34.001Z,16.00
2019-01-30T02:26:28.359Z,16.00
2019-01-30T02:29:22.759Z,16.00
2019-01-30T02:32:17.351Z,16.10
2019-01-30T02:35:11.737Z,16.10
2019-01-30T02:38:06.866Z,16.10
2019-01-30T02:41:01.667Z,16.10
2019-01-30T02:43:56.900Z,16.20
2019-01-30T02:46:51.673Z,16.20
2019-01-30T02:49:55.525Z,16.30
2019-01-30T02:52:53.846Z,16.30
2019-01-30T02:55:48.622Z,16.30
2019-01-30T02:58:43.280Z,16.30
2019-01-30T03:01:45.371Z,16.40
2019-01-30T03:04:39.918Z,16.40
2019-01-30T03:07:34.636Z,16.50
2019-01-30T03:10:29.140Z,16.50
2019-01-30T03:13:23.719Z,16.60
2019-01-30T03:16:18.537Z,16.60
2019-01-30T03:19:13.484Z,16.70
2019-01-30T03:22:08.322Z,16.80
2019-01-30T03:25:03.171Z,16.80
2019-01-30T03:27:57.999Z,16.90
2019-01-30T03:30:53.407Z,16.90
2019-01-30T03:33:49.258Z,16.90
2019-01-30T03:36:44.798Z,17.00
2019-01-30T03:39:43.934Z,17.00
2019-01-30T03:42:45.773Z,17.10
2019-01-30T03:45:54.562Z,17.20
2019-01-30T03:48:52.415Z,17.20
2019-01-30T03:51:54.580Z,17.30
2019-01-30T03:54:49.402Z,17.30
2019-01-30T03:57:45.389Z,17.30
2019-01-30T04:00:44.410Z,17.40
2019-01-30T04:03:45.122Z,17.40
2019-01-30T04:06:43.437Z,17.50
2019-01-30T04:09:38.750Z,17.50
2019-01-30T04:12:35.809Z,17.60
2019-01-30T04:15:30.448Z,17.60
2019-01-30T04:18:25.305Z,17.70
2019-01-30T04:21:23.000Z,17.80
2019-01-30T04:24:18.011Z,17.80
2019-01-30T04:27:19.617Z,17.80
2019-01-30T04:33:23.070Z,18.00
2019-01-30T04:36:18.608Z,18.10
2019-01-30T04:39:14.048Z,18.10
2019-01-30T04:42:11.970Z,18.20
2019-01-30T04:45:07.452Z,18.20
2019-01-30T04:48:07.404Z,18.30
2019-01-30T04:51:02.409Z,18.40
2019-01-30T04:53:56.952Z,18.40
2019-01-30T04:56:59.578Z,18.50
2019-01-30T04:59:54.484Z,18.50
2019-01-30T05:02:52.342Z,18.60
2019-01-30T05:05:46.794Z,18.60
2019-01-30T05:08:41.569Z,18.70
2019-01-30T05:11:55.241Z,18.80
2019-01-30T05:15:03.023Z,18.80
2019-01-30T05:17:56.208Z,18.90
2019-01-30T05:20:58.349Z,19.00
2019-01-30T05:24:06.914Z,19.10
2019-01-30T05:31:45.684Z,19.20
2019-01-30T05:34:40.955Z,19.30
2019-01-30T05:37:36.506Z,19.40
2019-01-30T05:40:42.184Z,19.40
2019-01-30T05:43:52.864Z,19.50
2019-01-30T05:47:16.700Z,19.60
2019-01-30T05:50:17.240Z,19.70
2019-01-30T05:53:12.934Z,19.80
2019-01-30T06:09:04.112Z,20.10
2019-01-30T06:12:23.977Z,20.20
2019-01-30T06:15:45.492Z,20.30
2019-01-30T06:18:52.606Z,20.30
2019-01-30T06:21:47.759Z,20.40
2019-01-30T06:25:05.215Z,20.40
2019-01-30T06:28:32.852Z,20.50
2019-01-30T06:34:50.390Z,20.60
2019-01-30T06:37:47.989Z,20.70
2019-01-30T06:41:27.124Z,20.80
2019-01-30T06:44:23.030Z,20.80
2019-01-30T06:47:29.534Z,21.00
2019-01-30T06:50:26.316Z,21.00
2019-01-30T06:53:30.204Z,21.10
2019-01-30T06:56:26.817Z,21.20
2019-01-30T06:59:22.584Z,21.20
2019-01-30T07:02:17.807Z,21.30
2019-01-30T07:05:13.807Z,21.40
2019-01-30T07:08:09.354Z,21.50
2019-01-30T07:11:10.600Z,21.70
2019-01-30T07:14:00.315Z,21.90
2019-01-30T07:17:15.248Z,22.20
2019-01-30T07:20:14.457Z,22.40
2019-01-30T07:23:13.278Z,22.60
2019-01-30T07:26:14.394Z,22.70
2019-01-30T07:29:09.056Z,22.90
2019-01-30T07:32:05.737Z,23.20
2019-01-30T07:35:05.260Z,23.50
2019-01-30T07:37:59.772Z,23.80
2019-01-30T07:40:55.108Z,24.00
2019-01-30T07:43:57.113Z,24.10
2019-01-30T07:46:52.327Z,24.20
2019-01-30T07:50:17.910Z,24.40
2019-01-30T07:53:18.300Z,24.40
2019-01-30T07:56:16.793Z,24.30
2019-01-30T07:59:11.831Z,24.20
2019-01-30T08:02:06.892Z,24.10
2019-01-30T08:05:08.055Z,24.00
2019-01-30T08:08:01.032Z,24.00
2019-01-30T08:10:56.016Z,23.90
2019-01-30T08:13:52.067Z,23.90
2019-01-30T08:16:48.059Z,23.90
2019-01-30T08:19:43.019Z,23.90
2019-01-30T08:22:44.964Z,24.00
2019-01-30T08:26:04.271Z,24.00
2019-01-30T08:28:58.982Z,24.00
2019-01-30T08:31:53.678Z,24.00
2019-01-30T08:34:50.704Z,24.00
2019-01-30T08:37:46.113Z,24.10
2019-01-30T08:40:41.240Z,24.10
2019-01-30T08:43:41.499Z,24.10
2019-01-30T08:51:07.283Z,24.10
2019-01-30T08:54:23.814Z,24.20
2019-01-30T08:57:21.612Z,24.20
2019-01-30T09:00:19.778Z,24.20
2019-01-30T09:03:15.224Z,24.30
2019-01-30T09:06:10.143Z,24.40
2019-01-30T09:09:06.145Z,24.60
2019-01-30T09:12:00.746Z,24.70
2019-01-30T09:14:55.479Z,24.90
2019-01-30T09:17:56.275Z,25.00
2019-01-30T09:20:50.673Z,25.20
2019-01-30T09:23:45.247Z,25.30
2019-01-30T09:26:40.242Z,25.40
2019-01-30T09:29:35.606Z,25.50
2019-01-30T09:32:30.486Z,25.50
2019-01-30T09:35:28.048Z,25.70
2019-01-30T09:38:23.474Z,25.90
2019-01-30T09:41:19.767Z,26.10
2019-01-30T09:44:17.447Z,26.40
2019-01-30T09:47:10.700Z,26.70
2019-01-30T09:50:07.455Z,27.10
2019-01-30T09:53:02.748Z,27.50
2019-01-30T09:55:59.747Z,27.80
2019-01-30T09:58:59.366Z,28.10
2019-01-30T10:01:52.471Z,28.20
2019-01-30T10:04:47.266Z,28.20
2019-01-30T10:07:42.329Z,28.20
2019-01-30T10:10:38.767Z,28.00
2019-01-30T10:13:34.423Z,27.90
2019-01-30T10:16:46.077Z,27.80
2019-01-30T10:20:01.544Z,27.60
2019-01-30T10:23:06.675Z,27.50
2019-01-30T10:29:05.924Z,27.10
2019-01-30T10:32:02.448Z,27.00
2019-01-30T10:41:37.281Z,26.60
2019-01-30T11:07:37.964Z,26.10
2019-01-30T11:10:37.566Z,26.00
2019-01-30T11:14:07.674Z,26.00
2019-01-30T11:17:04.052Z,25.90
2019-01-30T11:19:59.858Z,25.80
2019-01-30T11:23:06.034Z,25.80
2019-01-30T11:26:43.728Z,25.70
2019-01-30T11:43:48.056Z,25.50
2019-01-30T11:46:48.190Z,25.30
2019-01-30T11:49:53.974Z,25.20
2019-01-30T11:56:04.168Z,25.00
2019-01-30T11:59:22.517Z,24.90
2019-01-30T12:09:25.485Z,24.40
2019-01-30T12:12:19.382Z,24.30
2019-01-30T12:15:55.738Z,24.10
2019-01-30T12:18:48.030Z,24.00
2019-01-30T12:21:47.494Z,23.90
2019-01-30T12:24:59.188Z,23.70
2019-01-30T12:27:58.505Z,23.60
2019-01-30T12:30:58.747Z,23.50
2019-01-30T12:33:53.624Z,23.30
2019-01-30T12:36:48.871Z,23.20
2019-01-30T12:39:43.915Z,23.10
2019-01-30T12:42:39.123Z,23.00
2019-01-30T12:45:36.127Z,22.90
2019-01-30T12:48:31.586Z,22.80
2019-01-30T12:51:29.678Z,22.80
2019-01-30T12:58:03.582Z,22.60
2019-01-30T13:01:01.820Z,22.50
2019-01-30T13:03:56.656Z,22.50
2019-01-30T13:06:51.301Z,22.40
2019-01-30T13:09:46.384Z,22.30
2019-01-30T13:12:41.051Z,22.30
2019-01-30T13:15:35.964Z,22.20
2019-01-30T13:18:30.910Z,22.20
2019-01-30T13:21:27.453Z,22.10
2019-01-30T13:24:22.193Z,22.10
2019-01-30T13:27:17.475Z,22.00
2019-01-30T13:30:18.374Z,22.00
2019-01-30T13:33:15.404Z,21.90
2019-01-30T13:36:10.412Z,21.90
2019-01-30T13:39:05.743Z,21.80
2019-01-30T13:42:00.670Z,21.80
2019-01-30T13:44:56.016Z,21.70
2019-01-30T13:47:50.704Z,21.70
2019-01-30T13:50:45.479Z,21.70
2019-01-30T13:53:40.186Z,21.60
2019-01-30T13:56:34.544Z,21.60
2019-01-30T13:59:29.371Z,21.50
2019-01-30T14:02:24.487Z,21.40
2019-01-30T14:05:20.025Z,21.40
2019-01-30T14:08:18.429Z,21.40
2019-01-30T14:11:13.406Z,21.30
2019-01-30T14:14:08.420Z,21.30
2019-01-30T14:17:03.919Z,21.20
2019-01-30T14:20:49.388Z,21.20
2019-01-30T14:23:45.027Z,21.20
2019-01-30T14:30:15.272Z,21.00
2019-01-30T14:33:41.588Z,21.00
2019-01-30T14:37:09.472Z,21.00
2019-01-30T14:40:03.758Z,20.90
2019-01-30T14:42:58.583Z,20.90
2019-01-30T14:45:53.008Z,20.90
2019-01-30T14:48:47.825Z,20.80
2019-01-30T14:51:45.257Z,20.80
2019-01-30T14:54:37.683Z,20.80
2019-01-30T14:57:32.320Z,20.70
2019-01-30T15:00:30.434Z,20.70
2019-01-30T15:03:25.277Z,20.70
2019-01-30T15:06:19.915Z,20.70
2019-01-30T15:09:15.431Z,20.70
2019-01-30T15:12:10.370Z,20.60
2019-01-30T15:15:05.383Z,20.60
2019-01-30T15:18:00.466Z,20.60
2019-01-30T15:20:57.552Z,20.60
2019-01-30T15:23:52.416Z,20.50
2019-01-30T15:26:47.100Z,20.50
2019-01-30T15:29:41.945Z,20.50
2019-01-30T15:32:36.371Z,20.40
2019-01-30T15:35:33.765Z,20.40
2019-01-30T15:38:26.534Z,20.30
2019-01-30T15:41:21.391Z,20.30
2019-01-30T15:44:16.841Z,20.30
2019-01-30T15:47:11.555Z,20.20
2019-01-30T15:50:06.894Z,20.20
2019-01-30T15:53:03.744Z,20.20
2019-01-30T15:55:58.772Z,20.20
2019-01-30T15:58:53.901Z,20.10
2019-01-30T16:01:50.012Z,20.10
2019-01-30T16:04:44.427Z,20.00
2019-01-30T16:07:39.051Z,20.00
2019-01-30T16:10:33.892Z,20.00
2019-01-30T16:13:29.076Z,20.00
2019-01-30T16:16:23.782Z,19.90
2019-01-30T16:19:18.365Z,19.90
2019-01-30T16:22:13.302Z,19.90
2019-01-30T16:25:09.461Z,19.80
2019-01-30T16:28:03.981Z,19.80
2019-01-30T16:30:59.308Z,19.80
2019-01-30T16:33:54.082Z,19.70
2019-01-30T16:36:49.306Z,19.70
2019-01-30T16:39:44.469Z,19.70
2019-01-30T16:42:39.706Z,19.70
2019-01-30T16:45:36.152Z,19.70
2019-01-30T16:48:31.130Z,19.60
2019-01-30T16:51:25.870Z,19.60
2019-01-30T16:54:21.487Z,19.60
2019-01-30T16:57:16.550Z,19.60
2019-01-30T17:00:14.526Z,19.60
2019-01-30T17:03:09.472Z,19.50
2019-01-30T17:06:07.439Z,19.50
2019-01-30T17:08:59.445Z,19.40
2019-01-30T17:11:55.072Z,19.40
2019-01-30T17:14:49.851Z,19.40
2019-01-30T17:17:45.007Z,19.40
2019-01-30T17:20:41.148Z,19.40
2019-01-30T17:23:36.238Z,19.30
2019-01-30T17:26:31.259Z,19.30
2019-01-30T17:29:29.336Z,19.30
2019-01-30T17:32:24.169Z,19.30
2019-01-30T17:35:19.270Z,19.20
2019-01-30T17:38:14.662Z,19.20
2019-01-30T17:41:09.798Z,19.20
2019-01-30T17:44:03.993Z,19.20
2019-01-30T17:46:58.597Z,19.20
2019-01-30T17:49:52.919Z,19.10
2019-01-30T17:52:47.052Z,19.10
2019-01-30T17:55:41.460Z,19.10
2019-01-30T17:58:36.192Z,19.10
2019-01-30T18:01:30.601Z,19.00
2019-01-30T18:04:25.300Z,19.00
2019-01-30T18:07:22.668Z,18.90
2019-01-30T18:10:17.900Z,18.90
2019-01-30T18:13:12.598Z,18.90
2019-01-30T18:16:07.181Z,18.90
2019-01-30T18:19:01.786Z,18.90
2019-01-30T18:21:56.540Z,18.80
2019-01-30T18:24:51.217Z,18.80
2019-01-30T18:27:45.890Z,18.80
2019-01-30T18:30:40.575Z,18.80
2019-01-30T18:33:35.544Z,18.80
2019-01-30T18:36:40.335Z,18.70
2019-01-30T18:39:24.927Z,18.70
2019-01-30T18:42:19.641Z,18.70
2019-01-30T18:45:16.671Z,18.70
2019-01-30T18:48:11.393Z,18.60
2019-01-30T18:51:05.728Z,18.60
2019-01-30T18:54:00.594Z,18.60
2019-01-30T18:56:55.892Z,18.60
2019-01-30T18:59:50.471Z,18.60
2019-01-30T19:02:44.945Z,18.60
2019-01-30T19:05:39.443Z,18.60
2019-01-30T19:08:33.907Z,18.60
2019-01-30T19:11:28.965Z,18.50
2019-01-30T19:14:23.678Z,18.50
2019-01-30T19:17:18.035Z,18.50
2019-01-30T19:20:14.978Z,18.50
2019-01-30T19:23:12.445Z,18.50
2019-01-30T19:26:07.122Z,18.50
2019-01-30T19:29:01.420Z,18.50
2019-01-30T19:31:56.134Z,18.50
2019-01-30T19:34:50.572Z,18.50
2019-01-30T19:37:45.025Z,18.40
2019-01-30T19:40:39.727Z,18.40
2019-01-30T19:43:34.382Z,18.40
2019-01-30T19:46:28.991Z,18.40
2019-01-30T19:49:23.515Z,18.40
2019-01-30T19:52:17.998Z,18.40
2019-01-30T19:55:12.656Z,18.40
2019-01-30T19:58:07.367Z,18.30
2019-01-30T20:01:02.463Z,18.30
2019-01-30T20:03:56.614Z,18.30
2019-01-30T20:06:51.157Z,18.30
2019-01-30T20:09:45.523Z,18.20
2019-01-30T20:12:40.057Z,18.20
2019-01-30T20:15:34.874Z,18.20
2019-01-30T20:18:29.337Z,18.20
2019-01-30T20:21:23.690Z,18.10
2019-01-30T20:24:18.019Z,18.10
2019-01-30T20:27:12.376Z,18.10
2019-01-30T20:30:07.316Z,18.10
2019-01-30T20:33:02.072Z,18.10
2019-01-30T20:35:56.381Z,18.00
2019-01-30T20:38:51.133Z,18.00
2019-01-30T20:41:45.587Z,18.00
2019-01-30T20:44:40.218Z,18.00
2019-01-30T20:47:34.956Z,18.00
2019-01-30T20:50:31.444Z,17.90
2019-01-30T20:53:25.832Z,17.90
2019-01-30T20:56:20.266Z,17.90
2019-01-30T20:59:14.796Z,17.90
2019-01-30T21:02:10.174Z,17.90
2019-01-30T21:05:04.893Z,17.90
2019-01-30T21:08:03.025Z,17.90
2019-01-30T21:10:57.512Z,17.80
2019-01-30T21:13:52.206Z,17.80
2019-01-30T21:16:46.462Z,17.80
2019-01-30T21:19:41.102Z,17.80
2019-01-30T21:22:35.340Z,17.70
2019-01-30T21:25:30.149Z,17.80
2019-01-30T21:28:24.923Z,17.70
2019-01-30T21:31:19.249Z,17.70
2019-01-30T21:34:14.096Z,17.70
2019-01-30T21:37:08.538Z,17.70
2019-01-30T21:40:02.895Z,17.70
2019-01-30T21:42:57.262Z,17.70
2019-01-30T21:45:51.954Z,17.60
2019-01-30T21:48:46.385Z,17.60
2019-01-30T21:51:40.879Z,17.60
2019-01-30T21:54:35.497Z,17.60
2019-01-30T21:57:32.188Z,17.60
2019-01-30T22:00:31.262Z,17.60
2019-01-30T22:03:26.146Z,17.60
2019-01-30T22:06:20.899Z,17.50
2019-01-30T22:09:15.661Z,17.50
2019-01-30T22:12:10.419Z,17.50
2019-01-30T22:15:04.968Z,17.50
2019-01-30T22:17:59.668Z,17.50
2019-01-30T22:20:53.984Z,17.50
2019-01-30T22:23:48.624Z,17.50
2019-01-30T22:26:43.274Z,17.40
2019-01-30T22:29:38.901Z,17.40
2019-01-30T22:32:33.846Z,17.40
2019-01-30T22:35:28.247Z,17.40
2019-01-30T22:38:22.713Z,17.40
2019-01-30T22:41:17.128Z,17.40
2019-01-30T22:44:11.800Z,17.40
2019-01-30T22:47:06.375Z,17.40
2019-01-30T22:50:00.845Z,17.30
2019-01-30T22:52:55.617Z,17.30
2019-01-30T22:55:49.937Z,17.30
2019-01-30T22:58:44.304Z,17.30
2019-01-30T23:02:01.397Z,17.30
2019-01-30T23:05:17.690Z,17.30
2019-01-30T23:08:33.614Z,17.20
2019-01-30T23:12:03.848Z,17.20
2019-01-30T23:15:05.070Z,17.20
2019-01-30T23:18:54.065Z,17.10
2019-01-30T23:21:58.528Z,17.10
2019-01-30T23:25:43.852Z,17.10
2019-01-30T23:29:28.192Z,17.00
2019-01-30T23:32:54.178Z,17.00
2019-01-30T23:36:33.409Z,17.00
2019-01-30T23:40:08.784Z,16.90
2019-01-30T23:43:29.314Z,16.90
2019-01-30T23:46:43.792Z,16.90
2019-01-30T23:50:29.701Z,16.90
2019-01-30T23:53:53.753Z,16.80
2019-01-30T23:57:22.972Z,16.80
